createdAt,value
2019-03-11T00:01:03.598Z,97.80
2019-03-11T00:03:38.600Z,98.10
2019-03-11T00:06:13.143Z,98.00
2019-03-11T00:08:45.421Z,98.10
2019-03-11T00:11:17.088Z,98.10
2019-03-11T00:13:48.015Z,97.90
2019-03-11T00:16:18.784Z,98.20
2019-03-11T00:18:49.126Z,98.10
2019-03-11T00:21:22.284Z,98.50
2019-03-11T00:23:53.119Z,98.30
2019-03-11T00:26:25.721Z,98.40
2019-03-11T00:28:59.118Z,98.80
2019-03-11T00:31:29.695Z,98.90
2019-03-11T00:34:01.169Z,99.30
2019-03-11T00:36:33.543Z,99.10
2019-03-11T00:39:06.852Z,99.20
2019-03-11T00:41:37.352Z,99.40
2019-03-11T00:44:09.105Z,99.30
2019-03-11T00:46:41.147Z,99.50
2019-03-11T00:49:13.194Z,99.80
2019-03-11T00:51:43.828Z,99.90
2019-03-11T00:54:15.610Z,99.70
2019-03-11T00:56:46.819Z,99.90
2019-03-11T00:59:17.370Z,99.90
2019-03-11T01:01:47.777Z,99.90
2019-03-11T01:04:18.667Z,99.90
2019-03-11T01:06:49.220Z,99.90
2019-03-11T01:09:20.033Z,99.90
2019-03-11T01:11:52.520Z,99.90
2019-03-11T01:14:23.883Z,99.90
2019-03-11T01:16:55.237Z,99.90
2019-03-11T01:19:27.727Z,99.90
2019-03-11T01:21:58.288Z,99.90
2019-03-11T01:24:29.141Z,99.90
2019-03-11T01:26:59.681Z,99.90
2019-03-11T01:29:30.190Z,99.90
2019-03-11T01:32:00.552Z,99.90
2019-03-11T01:34:41.781Z,99.90
2019-03-11T01:37:12.118Z,99.90
2019-03-11T01:39:43.062Z,99.90
2019-03-11T01:42:16.077Z,99.90
2019-03-11T01:44:48.822Z,99.90
2019-03-11T01:47:21.731Z,99.90
2019-03-11T01:49:52.501Z,99.90
2019-03-11T01:52:23.484Z,99.90
2019-03-11T01:54:55.571Z,99.90
2019-03-11T01:57:26.040Z,99.90
2019-03-11T01:59:57.756Z,99.90
2019-03-11T02:02:30.429Z,99.90
2019-03-11T02:05:01.232Z,99.90
2019-03-11T02:07:31.830Z,99.90
2019-03-11T02:10:02.794Z,99.90
2019-03-11T02:12:33.231Z,99.90
2019-03-11T02:15:03.572Z,99.90
2019-03-11T02:17:33.973Z,99.90
2019-03-11T02:20:06.409Z,99.90
2019-03-11T02:22:37.211Z,99.90
2019-03-11T02:25:07.650Z,99.90
2019-03-11T02:27:39.780Z,99.90
2019-03-11T02:30:11.665Z,99.90
2019-03-11T02:32:42.601Z,99.90
2019-03-11T02:35:13.136Z,99.90
2019-03-11T02:37:46.583Z,99.90
2019-03-11T02:40:17.594Z,99.90
2019-03-11T02:42:49.348Z,99.90
2019-03-11T02:45:19.878Z,99.90
2019-03-11T02:47:51.257Z,99.90
2019-03-11T02:50:21.735Z,99.90
2019-03-11T02:52:52.484Z,99.90
2019-03-11T02:55:23.007Z,99.90
2019-03-11T02:57:54.463Z,99.90
2019-03-11T03:00:25.136Z,99.90
2019-03-11T03:03:28.995Z,99.90
2019-03-11T03:06:06.223Z,99.90
2019-03-11T03:08:36.611Z,99.90
2019-03-11T03:11:07.069Z,99.90
2019-03-11T03:13:40.872Z,99.90
2019-03-11T03:16:11.224Z,99.90
2019-03-11T03:18:43.917Z,99.90
2019-03-11T03:21:16.811Z,99.90
2019-03-11T03:23:47.394Z,99.90
2019-03-11T03:26:21.978Z,99.90
2019-03-11T03:28:54.806Z,99.90
2019-03-11T03:31:25.461Z,99.90
2019-03-11T03:33:55.824Z,99.90
2019-03-11T03:36:27.978Z,99.90
2019-03-11T03:38:58.941Z,99.90
2019-03-11T03:41:30.732Z,99.90
2019-03-11T03:44:01.503Z,99.90
2019-03-11T03:46:32.226Z,99.90
2019-03-11T03:49:02.801Z,99.90
2019-03-11T03:51:33.487Z,99.90
2019-03-11T03:54:07.080Z,99.90
2019-03-11T03:56:37.730Z,99.90
2019-03-11T03:59:11.092Z,99.90
2019-03-11T04:01:43.152Z,99.90
2019-03-11T04:04:14.038Z,99.90
2019-03-11T04:06:44.655Z,99.90
2019-03-11T04:09:15.845Z,99.90
2019-03-11T04:11:47.945Z,99.90
2019-03-11T04:14:20.249Z,99.90
2019-03-11T04:16:50.987Z,99.90
2019-03-11T04:19:22.034Z,99.90
2019-03-11T04:21:53.586Z,99.90
2019-03-11T04:24:26.834Z,99.90
2019-03-11T04:26:58.682Z,99.90
2019-03-11T04:29:29.867Z,99.90
2019-03-11T04:32:01.654Z,99.90
2019-03-11T04:34:36.011Z,99.90
2019-03-11T04:37:05.448Z,99.90
2019-03-11T04:39:38.297Z,99.90
2019-03-11T04:42:09.151Z,99.90
2019-03-11T04:44:40.204Z,99.90
2019-03-11T04:47:10.753Z,99.90
2019-03-11T04:49:43.690Z,99.90
2019-03-11T04:52:14.274Z,99.90
2019-03-11T04:54:46.284Z,99.90
2019-03-11T04:57:23.377Z,99.90
2019-03-11T04:59:53.230Z,99.90
2019-03-11T05:02:23.485Z,99.90
2019-03-11T05:04:54.075Z,99.90
2019-03-11T05:07:25.219Z,99.90
2019-03-11T05:09:55.890Z,99.90
2019-03-11T05:12:26.420Z,99.90
2019-03-11T05:14:58.014Z,99.90
2019-03-11T05:17:29.812Z,99.90
2019-03-11T05:20:00.410Z,99.90
2019-03-11T05:22:32.908Z,99.90
2019-03-11T05:25:06.554Z,99.90
2019-03-11T05:27:37.303Z,99.90
2019-03-11T05:30:10.977Z,99.90
2019-03-11T05:32:42.673Z,99.90
2019-03-11T05:35:14.563Z,99.90
2019-03-11T05:37:45.411Z,99.90
2019-03-11T05:40:16.047Z,99.90
2019-03-11T05:42:49.092Z,99.90
2019-03-11T05:45:19.977Z,99.90
2019-03-11T05:47:50.408Z,99.90
2019-03-11T05:50:23.267Z,99.90
2019-03-11T05:52:53.939Z,99.90
2019-03-11T05:55:26.881Z,99.90
2019-03-11T05:58:04.568Z,99.90
2019-03-11T06:00:35.435Z,99.90
2019-03-11T06:03:05.786Z,99.90
2019-03-11T06:05:38.929Z,99.90
2019-03-11T06:08:15.415Z,99.90
2019-03-11T06:10:46.098Z,99.90
2019-03-11T06:13:16.930Z,99.90
2019-03-11T06:15:47.611Z,99.90
2019-03-11T06:18:37.793Z,99.90
2019-03-11T06:21:18.000Z,99.90
2019-03-11T06:23:48.794Z,99.90
2019-03-11T06:26:19.200Z,99.90
2019-03-11T06:28:51.534Z,99.90
2019-03-11T06:31:24.116Z,99.90
2019-03-11T06:33:54.812Z,99.90
2019-03-11T06:36:25.399Z,99.90
2019-03-11T06:39:05.459Z,99.90
2019-03-11T06:41:30.823Z,99.90
2019-03-11T06:44:02.771Z,99.90
2019-03-11T06:46:35.074Z,99.90
2019-03-11T06:49:07.467Z,99.90
2019-03-11T06:51:40.360Z,99.90
2019-03-11T06:54:11.365Z,99.90
2019-03-11T06:56:42.687Z,99.90
2019-03-11T06:59:13.460Z,99.90
2019-03-11T07:01:44.222Z,99.90
2019-03-11T07:04:16.248Z,99.90
2019-03-11T07:06:48.459Z,99.90
2019-03-11T07:09:18.897Z,99.90
2019-03-11T07:11:50.745Z,99.90
2019-03-11T07:14:22.922Z,99.90
2019-03-11T07:16:53.293Z,99.90
2019-03-11T07:19:33.919Z,99.90
2019-03-11T07:22:04.727Z,99.90
2019-03-11T07:24:35.195Z,99.90
2019-03-11T07:27:06.117Z,99.90
2019-03-11T07:29:38.055Z,99.60
2019-03-11T07:32:12.099Z,98.50
2019-03-11T07:34:43.178Z,97.50
2019-03-11T07:37:13.610Z,96.80
2019-03-11T07:39:44.195Z,96.60
2019-03-11T07:42:15.950Z,95.40
2019-03-11T07:44:46.640Z,96.90
2019-03-11T07:47:17.144Z,97.80
2019-03-11T07:49:47.563Z,98.70
2019-03-11T07:52:18.504Z,98.70
2019-03-11T07:54:48.878Z,99.30
2019-03-11T07:57:22.575Z,99.30
2019-03-11T07:59:57.920Z,99.80
2019-03-11T08:02:28.408Z,99.70
2019-03-11T08:05:00.552Z,99.90
2019-03-11T08:07:31.027Z,99.90
2019-03-11T08:10:01.556Z,99.90
2019-03-11T08:12:32.328Z,99.90
2019-03-11T08:15:03.355Z,99.90
2019-03-11T08:17:33.979Z,99.90
2019-03-11T08:20:07.316Z,99.90
2019-03-11T08:22:39.731Z,99.90
2019-03-11T08:25:10.374Z,99.90
2019-03-11T08:27:44.036Z,99.90
2019-03-11T08:30:14.811Z,99.90
2019-03-11T08:32:45.276Z,99.90
2019-03-11T08:35:15.760Z,99.90
2019-03-11T08:37:46.421Z,99.90
2019-03-11T08:40:18.274Z,99.90
2019-03-11T08:42:50.029Z,99.90
2019-03-11T08:45:20.917Z,99.90
2019-03-11T08:47:53.323Z,99.90
2019-03-11T08:50:23.994Z,99.90
2019-03-11T08:52:55.504Z,99.90
2019-03-11T08:55:29.502Z,99.40
2019-03-11T08:58:00.705Z,99.10
2019-03-11T09:00:33.916Z,98.00
2019-03-11T09:03:05.581Z,96.80
2019-03-11T09:05:38.180Z,95.70
2019-03-11T09:08:08.708Z,94.80
2019-03-11T09:10:39.107Z,94.40
2019-03-11T09:13:10.639Z,95.20
2019-03-11T09:15:41.135Z,92.50
2019-03-11T09:18:20.079Z,92.50
2019-03-11T09:20:51.666Z,92.30
2019-03-11T09:23:23.714Z,91.80
2019-03-11T09:25:54.688Z,90.60
2019-03-11T09:28:27.578Z,90.10
2019-03-11T09:30:58.779Z,90.30
2019-03-11T09:33:29.390Z,90.20
2019-03-11T09:36:01.246Z,90.60
2019-03-11T09:38:35.024Z,90.10
2019-03-11T09:41:05.402Z,88.90
2019-03-11T09:43:36.609Z,89.80
2019-03-11T09:46:07.117Z,88.80
2019-03-11T09:48:37.889Z,86.30
2019-03-11T09:51:08.785Z,82.60
2019-03-11T09:53:39.394Z,81.30
2019-03-11T09:56:10.081Z,81.50
2019-03-11T09:58:40.417Z,81.30
2019-03-11T10:01:13.496Z,81.20
2019-03-11T10:03:45.115Z,82.00
2019-03-11T10:06:15.610Z,81.70
2019-03-11T10:08:47.096Z,77.60
2019-03-11T10:11:17.913Z,79.50
2019-03-11T10:13:49.664Z,79.10
2019-03-11T10:16:21.285Z,77.60
2019-03-11T10:18:52.826Z,77.70
2019-03-11T10:21:23.634Z,77.30
2019-03-11T10:23:54.126Z,76.70
2019-03-11T10:26:25.933Z,76.30
2019-03-11T10:28:57.102Z,78.70
2019-03-11T10:31:28.677Z,78.00
2019-03-11T10:33:59.544Z,76.50
2019-03-11T10:36:30.104Z,75.70
2019-03-11T10:39:04.691Z,76.80
2019-03-11T10:41:35.878Z,76.90
2019-03-11T10:44:06.529Z,77.20
2019-03-11T10:46:38.220Z,76.20
2019-03-11T10:49:09.075Z,76.90
2019-03-11T10:51:44.251Z,75.70
2019-03-11T10:54:17.279Z,76.00
2019-03-11T10:56:49.164Z,73.90
2019-03-11T10:59:21.266Z,74.00
2019-03-11T11:01:51.988Z,74.20
2019-03-11T11:04:25.218Z,74.20
2019-03-11T11:06:56.615Z,75.90
2019-03-11T11:09:26.974Z,76.10
2019-03-11T11:11:57.218Z,77.40
2019-03-11T11:14:27.924Z,75.90
2019-03-11T11:17:00.520Z,75.10
2019-03-11T11:19:32.319Z,74.30
2019-03-11T11:22:02.711Z,74.60
2019-03-11T11:24:35.878Z,73.10
2019-03-11T11:27:07.975Z,72.50
2019-03-11T11:29:41.246Z,75.20
2019-03-11T11:32:13.936Z,73.10
2019-03-11T11:34:45.823Z,74.00
2019-03-11T11:37:16.458Z,70.70
2019-03-11T11:39:48.211Z,71.50
2019-03-11T11:42:22.342Z,71.20
2019-03-11T11:44:54.808Z,72.60
2019-03-11T11:47:27.506Z,75.20
2019-03-11T11:50:00.049Z,83.20
2019-03-11T11:52:31.055Z,75.40
2019-03-11T11:55:01.680Z,76.70
2019-03-11T11:57:32.640Z,74.80
2019-03-11T12:00:03.704Z,77.10
2019-03-11T12:02:34.576Z,76.40
2019-03-11T12:05:08.737Z,75.40
2019-03-11T12:07:39.844Z,74.90
2019-03-11T12:10:14.676Z,75.20
2019-03-11T12:12:46.855Z,74.90
2019-03-11T12:15:20.322Z,76.00
2019-03-11T12:17:52.915Z,75.50
2019-03-11T12:20:25.028Z,76.20
2019-03-11T12:22:57.416Z,75.20
2019-03-11T12:25:29.703Z,74.90
2019-03-11T12:28:01.625Z,73.70
2019-03-11T12:30:35.013Z,72.90
2019-03-11T12:33:05.555Z,73.90
2019-03-11T12:35:36.080Z,78.10
2019-03-11T12:38:06.801Z,72.90
2019-03-11T12:40:37.400Z,72.40
2019-03-11T12:43:08.036Z,71.80
2019-03-11T12:45:38.605Z,72.10
2019-03-11T12:48:11.190Z,73.10
2019-03-11T12:50:42.220Z,74.50
2019-03-11T12:53:14.889Z,76.00
2019-03-11T12:55:45.778Z,76.60
2019-03-11T12:58:17.561Z,76.60
2019-03-11T13:00:49.368Z,75.70
2019-03-11T13:03:20.249Z,75.60
2019-03-11T13:05:50.886Z,75.60
2019-03-11T13:08:22.423Z,74.00
2019-03-11T13:10:52.948Z,72.60
2019-03-11T13:13:23.967Z,74.10
2019-03-11T13:15:54.405Z,73.60
2019-03-11T13:18:34.034Z,72.10
2019-03-11T13:21:26.608Z,73.00
2019-03-11T13:23:57.275Z,72.80
2019-03-11T13:26:28.369Z,71.00
2019-03-11T13:28:59.057Z,70.10
2019-03-11T13:31:32.265Z,69.40
2019-03-11T13:34:02.926Z,70.60
2019-03-11T13:36:36.101Z,70.60
2019-03-11T13:39:08.716Z,70.10
2019-03-11T13:41:40.068Z,69.90
2019-03-11T13:44:10.646Z,68.70
2019-03-11T13:46:41.630Z,69.30
2019-03-11T13:49:11.916Z,70.50
2019-03-11T13:51:42.520Z,70.10
2019-03-11T13:54:13.103Z,70.20
2019-03-11T13:56:48.835Z,71.10
2019-03-11T13:59:19.415Z,70.30
2019-03-11T14:01:51.510Z,71.40
2019-03-11T14:04:23.372Z,75.60
2019-03-11T14:06:54.062Z,76.40
2019-03-11T14:09:26.764Z,73.20
2019-03-11T14:11:57.157Z,73.70
2019-03-11T14:14:31.433Z,72.00
2019-03-11T14:17:02.279Z,71.00
2019-03-11T14:19:33.736Z,70.30
2019-03-11T14:22:04.397Z,71.40
2019-03-11T14:24:35.082Z,70.10
2019-03-11T14:27:05.595Z,68.40
2019-03-11T14:29:38.699Z,67.90
2019-03-11T14:32:09.180Z,66.40
2019-03-11T14:34:41.436Z,65.70
2019-03-11T14:37:16.603Z,65.40
2019-03-11T14:39:48.115Z,67.20
2019-03-11T14:42:20.600Z,67.10
2019-03-11T14:44:51.173Z,65.20
2019-03-11T14:47:21.843Z,63.90
2019-03-11T14:49:54.670Z,65.90
2019-03-11T14:52:26.730Z,67.20
2019-03-11T14:54:58.114Z,67.80
2019-03-11T14:57:28.435Z,67.70
2019-03-11T15:00:00.706Z,66.20
2019-03-11T15:02:33.787Z,66.80
2019-03-11T15:05:07.067Z,67.60
2019-03-11T15:07:37.724Z,69.00
2019-03-11T15:10:09.391Z,71.80
2019-03-11T15:12:39.709Z,72.10
2019-03-11T15:15:12.263Z,73.60
2019-03-11T15:17:43.104Z,77.10
2019-03-11T15:20:16.466Z,89.90
2019-03-11T15:22:49.042Z,95.70
2019-03-11T15:25:20.321Z,98.40
2019-03-11T15:27:50.811Z,99.00
2019-03-11T15:30:24.325Z,97.20
2019-03-11T15:32:57.723Z,96.20
2019-03-11T15:35:33.004Z,94.70
2019-03-11T15:38:04.663Z,92.70
2019-03-11T15:40:37.820Z,90.00
2019-03-11T15:43:09.776Z,90.90
2019-03-11T15:45:47.869Z,89.30
2019-03-11T15:48:18.743Z,89.20
2019-03-11T15:50:49.814Z,84.30
2019-03-11T15:53:20.111Z,84.20
2019-03-11T15:55:50.371Z,84.30
2019-03-11T15:58:20.688Z,85.20
2019-03-11T16:00:51.112Z,84.70
2019-03-11T16:03:21.491Z,84.10
2019-03-11T16:05:51.721Z,84.80
2019-03-11T16:08:21.983Z,85.60
2019-03-11T16:10:52.247Z,82.00
2019-03-11T16:13:22.574Z,78.90
2019-03-11T16:15:52.865Z,76.40
2019-03-11T16:18:23.092Z,79.50
2019-03-11T16:20:53.423Z,78.10
2019-03-11T16:23:23.643Z,80.00
2019-03-11T16:25:53.900Z,79.20
2019-03-11T16:28:24.148Z,79.40
2019-03-11T16:30:54.416Z,78.50
2019-03-11T16:33:24.648Z,79.70
2019-03-11T16:35:54.942Z,79.30
2019-03-11T16:38:25.179Z,81.70
2019-03-11T16:40:55.472Z,80.50
2019-03-11T16:43:25.717Z,81.40
2019-03-11T16:45:56.035Z,80.70
2019-03-11T16:48:26.304Z,80.90
2019-03-11T16:50:56.559Z,82.60
2019-03-11T16:53:26.791Z,84.00
2019-03-11T16:55:57.181Z,85.20
2019-03-11T16:58:27.415Z,85.50
2019-03-11T17:00:59.575Z,87.80
2019-03-11T17:03:32.370Z,86.80
2019-03-11T17:06:01.752Z,86.40
2019-03-11T17:08:32.139Z,87.10
2019-03-11T17:11:02.413Z,86.50
2019-03-11T17:13:32.672Z,85.80
2019-03-11T17:16:02.970Z,85.40
2019-03-11T17:18:33.231Z,86.80
2019-03-11T17:21:03.460Z,87.00
2019-03-11T17:23:33.809Z,86.80
2019-03-11T17:26:04.037Z,87.70
2019-03-11T17:28:35.203Z,87.90
2019-03-11T17:31:05.483Z,87.90
2019-03-11T17:33:35.755Z,88.20
2019-03-11T17:36:06.032Z,88.80
2019-03-11T17:38:36.356Z,88.10
2019-03-11T17:41:06.716Z,88.50
2019-03-11T17:43:37.021Z,88.60
2019-03-11T17:46:07.399Z,89.00
2019-03-11T17:48:37.649Z,90.00
2019-03-11T17:51:07.920Z,90.20
2019-03-11T17:53:39.151Z,90.90
2019-03-11T17:56:09.628Z,90.60
2019-03-11T17:58:39.976Z,90.60
2019-03-11T18:01:10.369Z,92.50
2019-03-11T18:03:40.626Z,91.90
2019-03-11T18:06:12.093Z,92.70
2019-03-11T18:08:42.636Z,92.70
2019-03-11T18:21:11.289Z,95.10
2019-03-11T18:23:41.552Z,95.30
2019-03-11T18:26:12.212Z,95.10
2019-03-11T18:28:42.538Z,95.20
2019-03-11T18:31:12.848Z,95.00
2019-03-11T18:33:43.111Z,95.30
2019-03-11T18:36:13.376Z,95.30
2019-03-11T18:38:43.602Z,95.10
2019-03-11T18:41:13.842Z,95.20
2019-03-11T18:43:44.107Z,95.20
2019-03-11T18:46:14.473Z,95.40
2019-03-11T18:48:47.582Z,94.90
2019-03-11T18:51:17.872Z,95.10
2019-03-11T18:53:48.152Z,95.10
2019-03-11T18:56:18.555Z,95.20
2019-03-11T18:58:48.960Z,95.20
2019-03-11T19:01:19.272Z,95.40
2019-03-11T19:03:49.585Z,95.90
2019-03-11T19:06:19.873Z,95.80
2019-03-11T19:08:51.121Z,96.00
2019-03-11T19:11:21.425Z,96.00
2019-03-11T19:13:51.983Z,96.30
2019-03-11T19:16:22.300Z,96.30
2019-03-11T19:18:52.553Z,96.30
2019-03-11T19:21:22.924Z,96.40
2019-03-11T19:23:53.257Z,96.40
2019-03-11T19:26:23.562Z,96.30
2019-03-11T19:28:53.857Z,96.70
2019-03-11T19:31:24.124Z,96.40
2019-03-11T19:33:54.470Z,96.40
2019-03-11T19:36:24.844Z,96.40
2019-03-11T19:38:56.975Z,96.30
2019-03-11T19:41:27.337Z,96.40
2019-03-11T19:43:58.693Z,96.30
2019-03-11T19:46:29.077Z,96.30
2019-03-11T19:48:59.442Z,96.20
2019-03-11T19:51:29.981Z,96.50
2019-03-11T19:54:00.346Z,96.70
2019-03-11T19:56:30.659Z,96.70
2019-03-11T19:59:01.100Z,96.70
2019-03-11T20:01:31.529Z,96.90
2019-03-11T20:04:01.950Z,96.50
2019-03-11T20:06:32.442Z,96.80
2019-03-11T20:09:03.519Z,97.00
2019-03-11T20:11:33.868Z,97.10
2019-03-11T20:14:04.205Z,97.40
2019-03-11T20:16:34.606Z,96.80
2019-03-11T20:19:05.027Z,96.30
2019-03-11T20:21:35.526Z,96.40
2019-03-11T20:24:06.719Z,96.60
2019-03-11T20:26:37.106Z,95.80
2019-03-11T20:29:07.563Z,95.90
2019-03-11T20:31:37.893Z,96.60
2019-03-11T20:34:08.371Z,96.10
2019-03-11T20:36:38.776Z,96.00
2019-03-11T20:39:09.424Z,96.40
2019-03-11T20:41:39.920Z,96.70
2019-03-11T20:44:10.454Z,97.00
2019-03-11T20:46:40.953Z,97.00
2019-03-11T20:49:11.304Z,97.00
2019-03-11T20:51:41.854Z,97.20
2019-03-11T20:54:12.303Z,97.00
2019-03-11T20:56:42.826Z,97.10
2019-03-11T20:59:13.222Z,97.40
2019-03-11T21:01:43.791Z,97.40
2019-03-11T21:04:14.167Z,97.60
2019-03-11T21:06:44.630Z,97.80
2019-03-11T21:09:15.070Z,97.60
2019-03-11T21:11:45.499Z,97.80
2019-03-11T21:14:16.045Z,98.00
2019-03-11T21:16:46.327Z,98.00
2019-03-11T21:19:16.744Z,97.70
2019-03-11T21:21:47.296Z,97.70
2019-03-11T21:24:17.712Z,98.00
2019-03-11T21:26:48.201Z,98.10
2019-03-11T21:29:18.656Z,98.50
2019-03-11T21:31:49.137Z,98.30
2019-03-11T21:34:19.513Z,98.20
2019-03-11T21:36:50.823Z,98.50
2019-03-11T21:39:21.541Z,98.00
2019-03-11T21:41:51.956Z,98.20
2019-03-11T21:44:22.351Z,98.50
2019-03-11T21:46:52.693Z,98.40
2019-03-11T21:49:22.988Z,98.20
2019-03-11T21:51:53.421Z,98.20
2019-03-11T21:54:23.823Z,98.30
2019-03-11T21:56:54.197Z,98.30
2019-03-11T21:59:24.788Z,98.00
2019-03-11T22:01:55.095Z,98.10
2019-03-11T22:04:25.407Z,98.20
2019-03-11T22:06:55.778Z,98.10
2019-03-11T22:09:26.090Z,98.20
2019-03-11T22:11:56.516Z,97.80
2019-03-11T22:14:26.891Z,98.00
2019-03-11T22:16:57.158Z,98.30
2019-03-11T22:19:27.460Z,97.80
2019-03-11T22:21:57.923Z,98.10
2019-03-11T22:24:28.217Z,98.00
2019-03-11T22:26:58.452Z,98.30
2019-03-11T22:29:28.779Z,98.10
2019-03-11T22:31:59.096Z,98.00
2019-03-11T22:34:29.317Z,98.20
2019-03-11T22:36:59.634Z,98.30
2019-03-11T22:39:29.859Z,98.30
2019-03-11T22:42:00.205Z,98.20
2019-03-11T22:44:30.466Z,98.20
2019-03-11T22:47:00.867Z,98.50
2019-03-11T22:49:31.198Z,98.70
2019-03-11T22:52:01.494Z,98.80
2019-03-11T22:54:31.783Z,98.60
2019-03-11T22:57:02.044Z,98.50
2019-03-11T22:59:32.311Z,98.60
2019-03-11T23:02:02.628Z,98.80
2019-03-11T23:04:32.888Z,98.70
2019-03-11T23:07:03.255Z,98.90
2019-03-11T23:09:33.557Z,98.90
2019-03-11T23:12:03.793Z,99.10
2019-03-11T23:14:34.019Z,99.30
2019-03-11T23:17:04.376Z,99.40
2019-03-11T23:19:34.786Z,99.70
2019-03-11T23:22:05.117Z,99.80
2019-03-11T23:24:35.427Z,99.60
2019-03-11T23:27:05.829Z,99.80
2019-03-11T23:29:36.103Z,99.90
2019-03-11T23:32:06.354Z,99.90
2019-03-11T23:34:36.610Z,99.90
2019-03-11T23:37:06.875Z,99.90
2019-03-11T23:39:37.132Z,99.90
2019-03-11T23:42:07.394Z,99.90
2019-03-11T23:44:37.674Z,99.90
2019-03-11T23:47:07.900Z,99.90
2019-03-11T23:49:38.150Z,99.90
2019-03-11T23:52:08.367Z,99.70
2019-03-11T23:54:38.607Z,99.90
2019-03-11T23:57:08.836Z,99.90
2019-03-11T23:59:39.132Z,99.90
